createdAt,value
2022-11-09T00:01:45.453Z,39.3
2022-11-09T00:07:06.805Z,39.3
2022-11-09T00:12:32.997Z,39.3
2022-11-09T00:18:11.438Z,39.3
2022-11-09T00:23:38.969Z,39.3
2022-11-09T00:28:45.115Z,39.2
2022-11-09T00:34:24.601Z,39.2
2022-11-09T00:39:46.202Z,39.2
2022-11-09T00:45:24.067Z,39.1
2022-11-09T00:51:01.862Z,39.1
2022-11-09T00:56:37.754Z,39.1
2022-11-09T01:02:16.003Z,39.1
2022-11-09T01:07:56.468Z,39.1
2022-11-09T01:13:34.337Z,39
2022-11-09T01:19:12.567Z,39
2022-11-09T01:24:19.307Z,39
2022-11-09T01:29:56.515Z,38.9
2022-11-09T01:35:18.761Z,38.9
2022-11-09T01:40:56.031Z,38.9
2022-11-09T01:46:32.789Z,38.9
2022-11-09T01:52:10.788Z,38.9
2022-11-09T01:57:48.956Z,38.9
2022-11-09T02:03:10.047Z,38.8
2022-11-09T02:08:48.102Z,38.8
2022-11-09T02:14:26.423Z,38.8
2022-11-09T02:19:47.381Z,38.8
2022-11-09T02:25:29.059Z,38.8
2022-11-09T02:30:51.510Z,38.7
2022-11-09T02:36:13.020Z,38.7
2022-11-09T02:41:35.319Z,38.7
2022-11-09T02:47:00.142Z,38.6
2022-11-09T02:52:37.068Z,38.6
2022-11-09T02:57:59.179Z,38.6
2022-11-09T03:03:05.706Z,38.6
2022-11-09T03:08:27.545Z,38.6
2022-11-09T03:14:05.045Z,38.6
2022-11-09T03:19:26.865Z,38.5
2022-11-09T03:24:32.077Z,38.5
2022-11-09T03:29:38.761Z,38.5
2022-11-09T03:34:46.970Z,38.4
2022-11-09T03:39:53.130Z,38.4
2022-11-09T03:45:00.652Z,38.4
2022-11-09T03:50:07.509Z,38.4
2022-11-09T03:55:28.071Z,38.4
2022-11-09T04:00:34.613Z,38.4
2022-11-09T04:05:26.121Z,38.3
2022-11-09T04:10:17.019Z,38.3
2022-11-09T04:15:22.986Z,38.3
2022-11-09T04:20:30.075Z,38.3
2022-11-09T04:25:40.121Z,38.3
2022-11-09T04:30:46.616Z,38.3
2022-11-09T04:36:12.546Z,38.3
2022-11-09T04:41:04.112Z,38.2
2022-11-09T04:46:25.498Z,38.2
2022-11-09T04:51:01.978Z,38.2
2022-11-09T04:56:12.045Z,38.1
2022-11-09T05:01:18.889Z,38.1
2022-11-09T05:06:10.093Z,38.1
2022-11-09T05:11:01.646Z,38.1
2022-11-09T05:15:57.614Z,38
2022-11-09T05:20:49.208Z,38
2022-11-09T05:25:55.227Z,38
2022-11-09T05:31:18.395Z,38
2022-11-09T05:36:10.657Z,38
2022-11-09T05:41:19.382Z,37.9
2022-11-09T05:46:29.700Z,37.9
2022-11-09T05:51:52.055Z,37.9
2022-11-09T05:56:26.515Z,37.9
2022-11-09T06:01:17.694Z,37.9
2022-11-09T06:06:09.639Z,37.8
2022-11-09T06:11:01.490Z,37.8
2022-11-09T06:15:42.868Z,37.8
2022-11-09T06:20:19.179Z,37.8
2022-11-09T06:25:15.994Z,37.8
2022-11-09T06:29:52.172Z,37.8
2022-11-09T06:34:43.888Z,38.2
2022-11-09T06:39:23.704Z,39
2022-11-09T06:44:00.967Z,39.9
2022-11-09T06:48:54.605Z,40.9
2022-11-09T06:53:30.692Z,41.6
2022-11-09T06:57:50.902Z,41.8
2022-11-09T07:02:17.549Z,41.8
2022-11-09T07:07:09.570Z,41.8
2022-11-09T07:12:02.948Z,41.8
2022-11-09T07:16:54.637Z,41.8
2022-11-09T07:21:47.530Z,41.8
2022-11-09T07:26:23.722Z,41.8
2022-11-09T07:30:43.878Z,41.8
2022-11-09T07:36:15.665Z,41.8
2022-11-09T07:40:38.778Z,41.8
2022-11-09T07:45:04.002Z,41.8
2022-11-09T07:49:54.892Z,41.7
2022-11-09T07:54:50.953Z,41.7
2022-11-09T07:59:27.982Z,41.7
2022-11-09T08:04:20.193Z,41.7
2022-11-09T08:08:55.039Z,41.6
2022-11-09T08:13:31.051Z,41.6
2022-11-09T08:18:22.865Z,41.6
2022-11-09T08:23:20.098Z,41.6
2022-11-09T08:27:56.293Z,41.6
2022-11-09T08:32:34.105Z,41.6
2022-11-09T08:37:15.326Z,41.6
2022-11-09T08:41:51.704Z,41.6
2022-11-09T08:46:26.804Z,41.6
2022-11-09T08:51:02.479Z,41.5
2022-11-09T08:55:53.791Z,41.5
2022-11-09T09:01:00.548Z,41.4
2022-11-09T09:06:08.474Z,41.4
2022-11-09T09:10:50.958Z,41.4
2022-11-09T09:15:58.496Z,42.3
2022-11-09T09:20:55.847Z,42.5
2022-11-09T09:25:46.575Z,42.6
2022-11-09T09:30:53.667Z,42.6
2022-11-09T09:36:21.312Z,42.6
2022-11-09T09:41:31.207Z,42.6
2022-11-09T09:46:53.154Z,42.6
2022-11-09T09:52:16.637Z,42.6
2022-11-09T09:57:59.952Z,42.6
2022-11-09T10:03:22.445Z,42.9
2022-11-09T10:08:45.674Z,44
2022-11-09T10:14:13.485Z,44.3
2022-11-09T10:19:51.398Z,44.3
2022-11-09T10:26:20.265Z,44.3
2022-11-09T10:32:09.231Z,44.3
2022-11-09T10:37:47.352Z,45
2022-11-09T10:43:10.698Z,45.9
2022-11-09T10:48:49.027Z,46.1
2022-11-09T10:54:27.257Z,46.1
2022-11-09T11:00:28.948Z,46.1
2022-11-09T11:05:20.762Z,46.1
2022-11-09T11:10:30.500Z,46.5
2022-11-09T11:16:36.973Z,47.5
2022-11-09T11:21:50.436Z,47.7
2022-11-09T11:27:28.428Z,47.8
2022-11-09T11:33:07.656Z,47.8
2022-11-09T11:39:16.881Z,47.8
2022-11-09T11:45:03.114Z,47.7
2022-11-09T11:51:05.925Z,47.7
2022-11-09T11:56:50.308Z,47.7
2022-11-09T12:02:12.659Z,48.8
2022-11-09T12:07:40.398Z,49
2022-11-09T12:13:18.804Z,49.1
2022-11-09T12:18:57.383Z,49.1
2022-11-09T12:24:25.535Z,49.1
2022-11-09T12:30:08.460Z,49
2022-11-09T12:35:20.961Z,49
2022-11-09T12:40:43.397Z,49
2022-11-09T12:46:07.944Z,48.9
2022-11-09T12:51:29.541Z,48.9
2022-11-09T12:56:51.666Z,48.9
2022-11-09T13:02:17.292Z,48.9
2022-11-09T13:07:41.612Z,48.9
2022-11-09T13:13:10.584Z,48.8
2022-11-09T13:18:35.403Z,48.8
2022-11-09T13:24:57.722Z,48.8
2022-11-09T13:30:35.733Z,48.8
2022-11-09T13:36:14.717Z,48.8
2022-11-09T13:41:52.976Z,48.7
2022-11-09T13:47:18.166Z,48.7
2022-11-09T13:52:24.739Z,48.6
2022-11-09T13:58:06.156Z,48.6
2022-11-09T14:03:48.834Z,48.6
2022-11-09T14:09:30.346Z,48.6
2022-11-09T14:15:09.683Z,48.5
2022-11-09T14:20:48.014Z,48.5
2022-11-09T14:26:25.371Z,48.5
2022-11-09T14:32:03.039Z,48.4
2022-11-09T14:37:41.523Z,48.4
2022-11-09T14:43:19.418Z,48.4
2022-11-09T14:49:02.318Z,48.3
2022-11-09T14:54:44.768Z,48.3
2022-11-09T15:00:24.543Z,48.3
2022-11-09T15:06:08.299Z,48.3
2022-11-09T15:11:35.570Z,48.2
2022-11-09T15:17:17.534Z,48.2
2022-11-09T15:22:47.075Z,48.2
2022-11-09T15:27:55.963Z,48.1
2022-11-09T15:33:20.696Z,48.1
2022-11-09T15:38:28.037Z,48.1
2022-11-09T15:43:52.974Z,48.1
2022-11-09T15:49:19.018Z,48
2022-11-09T15:54:45.533Z,48
2022-11-09T16:00:30.843Z,47.9
2022-11-09T16:05:53.018Z,47.9
2022-11-09T16:11:34.483Z,47.9
2022-11-09T16:17:02.079Z,47.9
2022-11-09T16:22:39.596Z,47.8
2022-11-09T16:28:43.729Z,47.8
2022-11-09T16:34:32.326Z,47.8
2022-11-09T16:40:43.142Z,47.8
2022-11-09T16:46:23.000Z,47.7
2022-11-09T16:52:01.278Z,47.6
2022-11-09T16:57:41.666Z,47.6
2022-11-09T17:03:33.920Z,47.6
2022-11-09T17:09:12.517Z,47.6
2022-11-09T17:14:34.705Z,47.5
2022-11-09T17:20:13.827Z,47.5
2022-11-09T17:25:54.083Z,47.4
2022-11-09T17:31:02.494Z,47.4
2022-11-09T17:36:41.817Z,47.4
2022-11-09T17:42:03.781Z,47.4
2022-11-09T17:47:26.234Z,47.3
2022-11-09T17:52:34.815Z,47.3
2022-11-09T17:57:45.011Z,47.3
2022-11-09T18:03:07.760Z,47.3
2022-11-09T18:08:46.057Z,47.2
2022-11-09T18:14:22.709Z,47.1
2022-11-09T18:19:44.768Z,47.1
2022-11-09T18:25:10.107Z,47.1
2022-11-09T18:30:54.070Z,47.1
2022-11-09T18:36:32.128Z,47.1
2022-11-09T18:41:56.746Z,47
2022-11-09T18:47:22.373Z,47
2022-11-09T18:52:44.577Z,46.9
2022-11-09T18:57:52.918Z,46.9
2022-11-09T19:03:00.362Z,46.9
2022-11-09T19:08:23.910Z,46.9
2022-11-09T19:13:46.260Z,46.8
2022-11-09T19:18:53.456Z,46.8
2022-11-09T19:24:20.549Z,46.8
2022-11-09T19:29:43.495Z,46.8
2022-11-09T19:34:57.441Z,46.7
2022-11-09T19:41:29.986Z,46.7
2022-11-09T19:47:09.500Z,46.6
2022-11-09T19:52:00.805Z,46.6
2022-11-09T19:57:24.865Z,46.6
2022-11-09T20:03:02.646Z,46.6
2022-11-09T20:08:41.482Z,46.5
2022-11-09T20:14:21.159Z,46.5
2022-11-09T20:19:43.708Z,46.5
2022-11-09T20:25:06.180Z,46.4
2022-11-09T20:29:57.449Z,46.4
2022-11-09T20:35:06.665Z,46.4
2022-11-09T20:40:20.057Z,46.6
2022-11-09T20:45:41.934Z,47.4
2022-11-09T20:51:43.507Z,48.6
2022-11-09T20:56:40.838Z,49.4
2022-11-09T21:01:16.682Z,50.4
2022-11-09T21:06:10.563Z,51.4
2022-11-09T21:10:46.368Z,52.3
2022-11-09T21:15:37.339Z,52.6
2022-11-09T21:20:43.944Z,52.7
2022-11-09T21:25:53.246Z,52.7
2022-11-09T21:31:00.221Z,52.7
2022-11-09T21:36:07.073Z,52.7
2022-11-09T21:41:28.801Z,52.6
2022-11-09T21:46:51.297Z,52.6
2022-11-09T21:51:57.740Z,52.6
2022-11-09T21:57:03.544Z,52.6
2022-11-09T22:02:10.965Z,52.6
2022-11-09T22:07:02.593Z,52.5
2022-11-09T22:12:40.726Z,52.5
2022-11-09T22:17:31.947Z,52.5
2022-11-09T22:22:37.934Z,52.4
2022-11-09T22:44:02.734Z,52.3
2022-11-09T22:49:24.934Z,52.3
2022-11-09T22:54:51.096Z,52.3
2022-11-09T23:00:13.094Z,52.3
2022-11-09T23:05:50.929Z,52.3
2022-11-09T23:11:12.458Z,52.2
2022-11-09T23:16:49.765Z,52.2
2022-11-09T23:22:14.805Z,52.1
2022-11-09T23:27:51.992Z,52.1
2022-11-09T23:33:29.772Z,52.1
2022-11-09T23:38:58.550Z,52
2022-11-09T23:44:38.716Z,52
